Time;durP1;ratioP1;P1;durP2;ratioP2;P2;SDS_P1;SDS_P2;PMS_P1;PMS_P2;Temp;Humidity;BMP_temperature;BMP_pressure;BME280_temperature;BME280_humidity;BME280_pressure;Samples;Min_cycle;Max_cycle;Signal;HPM_P1;HPM_P2
2023/03/26 00:01:04;;;;;;;1.80;1.40;;;7.10;99.90;;;;;;5052562;28;20582;-83
2023/03/26 00:03:31;;;;;;;4.97;1.50;;;7.00;99.90;;;;;;5042634;28;20188;-83
2023/03/26 00:06:11;;;;;;;5.27;1.40;;;7.10;99.90;;;;;;5052549;28;20222;-83
2023/03/26 00:08:38;;;;;;;2.50;1.30;;;7.10;99.90;;;;;;5052518;28;20207;-83
2023/03/26 00:11:05;;;;;;;2.80;1.40;;;7.10;99.90;;;;;;5052048;28;20206;-83
2023/03/26 00:13:32;;;;;;;4.93;1.77;;;7.20;99.90;;;;;;5034681;28;20196;-83
2023/03/26 00:15:58;;;;;;;4.10;1.40;;;7.10;99.90;;;;;;5034796;28;20760;-85
2023/03/26 00:18:29;;;;;;;2.60;1.20;;;7.10;99.90;;;;;;5034698;28;20172;-83
2023/03/26 00:20:58;;;;;;;3.93;1.60;;;7.10;99.90;;;;;;5052252;28;20165;-83
2023/03/26 00:23:25;;;;;;;5.57;1.97;;;7.20;99.90;;;;;;5052439;28;20172;-83
2023/03/26 00:25:52;;;;;;;3.37;1.40;;;7.10;99.90;;;;;;5034676;28;20302;-83
2023/03/26 00:28:20;;;;;;;5.03;1.50;;;7.20;99.90;;;;;;5052430;28;20655;-83
2023/03/26 00:30:47;;;;;;;2.97;1.40;;;7.10;99.90;;;;;;5051878;28;20587;-83
2023/03/26 00:33:16;;;;;;;3.40;1.53;;;7.20;99.90;;;;;;5034408;28;20188;-83
2023/03/26 00:35:45;;;;;;;2.40;1.33;;;7.20;99.90;;;;;;5052046;28;20199;-83
2023/03/26 00:38:13;;;;;;;5.10;1.60;;;7.20;99.90;;;;;;5034417;28;20264;-83
2023/03/26 00:40:43;;;;;;;4.37;1.53;;;7.20;99.90;;;;;;5051774;28;20696;-85
2023/03/26 00:43:17;;;;;;;2.57;1.30;;;7.20;99.90;;;;;;5034655;28;20294;-83
2023/03/26 00:45:46;;;;;;;3.30;1.40;;;7.20;99.90;;;;;;5034300;28;20193;-83
2023/03/26 00:48:12;;;;;;;3.37;1.30;;;7.20;99.90;;;;;;5034149;28;20176;-83
2023/03/26 00:50:38;;;;;;;3.13;1.40;;;7.20;99.90;;;;;;5051646;28;20188;-84
2023/03/26 00:53:04;;;;;;;3.83;1.40;;;7.20;99.90;;;;;;5052348;28;20180;-83
2023/03/26 00:55:30;;;;;;;3.87;1.30;;;7.20;99.90;;;;;;5052241;28;20286;-83
2023/03/26 00:57:56;;;;;;;4.10;1.50;;;7.20;99.90;;;;;;5034209;28;20168;-83
2023/03/26 01:00:30;;;;;;;1.77;0.93;;;7.20;99.90;;;;;;5033446;28;20193;-83
2023/03/26 01:02:57;;;;;;;2.50;1.20;;;7.20;99.90;;;;;;5035738;28;20376;-83
2023/03/26 01:05:35;;;;;;;2.93;1.70;;;7.20;99.90;;;;;;5038185;28;20230;-83
2023/03/26 01:08:21;;;;;;;2.17;1.00;;;7.20;99.90;;;;;;5043838;28;20666;-83
2023/03/26 01:10:51;;;;;;;3.13;1.20;;;7.20;99.90;;;;;;5057369;28;20179;-83
2023/03/26 01:13:22;;;;;;;3.27;1.47;;;7.20;99.90;;;;;;5075893;28;20267;-83
2023/03/26 01:15:49;;;;;;;2.73;1.30;;;7.20;99.90;;;;;;5057819;28;20202;-83
2023/03/26 01:18:19;;;;;;;1.80;1.20;;;7.20;99.90;;;;;;5075859;28;20643;-83
2023/03/26 01:20:48;;;;;;;3.97;1.50;;;7.20;99.90;;;;;;5075421;28;20169;-83
2023/03/26 01:23:20;;;;;;;3.33;1.33;;;7.20;99.90;;;;;;5075851;28;20192;-83
2023/03/26 01:25:59;;;;;;;4.33;1.23;;;7.20;99.90;;;;;;5075655;28;20860;-83
2023/03/26 01:28:28;;;;;;;2.33;1.30;;;7.10;99.90;;;;;;5057920;28;20202;-83
2023/03/26 01:31:10;;;;;;;3.20;1.53;;;7.10;99.90;;;;;;5075211;28;20179;-81
2023/03/26 01:33:47;;;;;;;2.17;1.60;;;7.20;99.90;;;;;;5057952;28;20634;-83
2023/03/26 01:36:37;;;;;;;4.07;1.60;;;7.20;99.90;;;;;;5075405;28;20206;-83
2023/03/26 01:39:17;;;;;;;4.33;1.50;;;7.10;99.90;;;;;;5057328;28;20575;-83
2023/03/26 01:41:47;;;;;;;3.23;1.30;;;7.20;99.90;;;;;;5056990;28;20238;-83
2023/03/26 01:44:18;;;;;;;4.30;1.50;;;7.20;99.90;;;;;;5057598;28;20209;-83
2023/03/26 01:46:45;;;;;;;4.57;1.80;;;7.10;99.90;;;;;;5075342;28;20203;-83
2023/03/26 01:49:12;;;;;;;4.67;1.50;;;7.10;99.90;;;;;;5075204;28;20238;-83
2023/03/26 01:51:39;;;;;;;4.07;1.40;;;7.10;99.90;;;;;;5056976;28;20173;-85
2023/03/26 01:54:09;;;;;;;3.80;1.40;;;7.10;99.90;;;;;;5057239;28;20177;-83
2023/03/26 01:56:38;;;;;;;5.53;1.47;;;7.10;99.90;;;;;;5057334;28;20179;-83
2023/03/26 01:59:12;;;;;;;4.50;2.03;;;7.10;99.90;;;;;;5057128;28;20187;-83
2023/03/26 02:02:27;;;;;;;4.97;1.70;;;7.00;99.90;;;;;;5074689;28;20182;-84
2023/03/26 02:05:14;;;;;;;3.47;1.50;;;7.00;99.90;;;;;;4993391;28;20198;-83
2023/03/26 02:07:57;;;;;;;4.37;1.30;;;7.00;99.90;;;;;;5070388;28;20215;-83
2023/03/26 02:10:26;;;;;;;5.33;1.90;;;7.00;99.90;;;;;;5056335;28;20282;-83
2023/03/26 02:12:53;;;;;;;4.17;1.67;;;6.90;99.90;;;;;;5056937;28;20275;-84
2023/03/26 02:15:19;;;;;;;4.73;1.57;;;6.90;99.90;;;;;;5073554;28;20200;-83
2023/03/26 02:17:45;;;;;;;5.90;1.60;;;7.00;99.90;;;;;;5056640;28;20177;-84
2023/03/26 02:20:13;;;;;;;5.57;1.90;;;7.00;99.90;;;;;;5056136;28;20200;-83
2023/03/26 02:22:40;;;;;;;5.53;2.23;;;7.00;99.90;;;;;;5070043;28;20192;-84
2023/03/26 02:25:11;;;;;;;4.13;1.63;;;7.00;99.90;;;;;;5036839;28;20637;-83
2023/03/26 02:27:38;;;;;;;6.43;1.80;;;7.00;99.90;;;;;;5042695;28;20330;-84
2023/03/26 02:30:07;;;;;;;7.10;1.90;;;7.00;99.90;;;;;;5036061;28;20242;-83
2023/03/26 02:32:33;;;;;;;5.40;1.80;;;7.10;99.90;;;;;;5054199;28;20224;-83
2023/03/26 02:34:59;;;;;;;3.87;1.77;;;7.10;99.90;;;;;;5036745;28;20625;-84
2023/03/26 02:37:25;;;;;;;3.60;1.63;;;7.10;99.90;;;;;;5036750;28;20644;-83
2023/03/26 02:39:50;;;;;;;3.87;1.77;;;7.10;99.90;;;;;;5035935;28;20193;-83
2023/03/26 02:42:16;;;;;;;6.47;1.77;;;7.10;99.90;;;;;;5036106;28;20164;-83
2023/03/26 02:44:41;;;;;;;5.60;1.70;;;7.00;99.90;;;;;;5054124;28;20177;-85
2023/03/26 02:47:07;;;;;;;4.97;1.80;;;7.00;99.90;;;;;;5054183;28;20748;-83
2023/03/26 02:49:33;;;;;;;6.13;1.77;;;7.00;99.90;;;;;;5094470;22;20725;-83
2023/03/26 02:51:59;;;;;;;4.10;1.97;;;7.00;99.90;;;;;;5053997;28;20165;-83
2023/03/26 02:54:24;;;;;;;5.77;1.77;;;6.90;99.90;;;;;;5036533;28;20185;-83
2023/03/26 02:56:50;;;;;;;4.20;1.77;;;6.90;99.90;;;;;;5054264;28;20181;-83
2023/03/26 02:59:15;;;;;;;5.20;2.00;;;6.80;99.90;;;;;;5048992;28;20202;-82
2023/03/26 03:01:45;;;;;;;4.33;2.00;;;6.80;99.90;;;;;;5015756;28;20239;-83
2023/03/26 03:04:11;;;;;;;5.73;2.10;;;6.80;99.90;;;;;;5016493;28;20283;-82
2023/03/26 03:06:39;;;;;;;4.73;1.70;;;6.70;99.90;;;;;;5016634;28;20256;-83
2023/03/26 03:09:08;;;;;;;9.93;2.23;;;6.70;99.90;;;;;;5016310;28;20194;-85
2023/03/26 03:11:34;;;;;;;4.03;1.87;;;6.60;99.90;;;;;;5016138;28;20182;-83
2023/03/26 03:14:00;;;;;;;6.63;1.70;;;6.60;99.90;;;;;;5033749;28;20179;-83
2023/03/26 03:16:26;;;;;;;6.33;2.00;;;6.50;99.90;;;;;;5034151;28;20214;-82
2023/03/26 03:18:53;;;;;;;3.57;1.80;;;6.60;99.90;;;;;;5016075;28;20178;-82
2023/03/26 03:21:19;;;;;;;7.87;2.23;;;6.50;99.90;;;;;;5033266;28;20174;-83
2023/03/26 03:23:45;;;;;;;3.60;1.40;;;6.50;99.90;;;;;;5016274;28;20232;-83
2023/03/26 03:26:16;;;;;;;4.97;1.90;;;6.50;99.90;;;;;;5016240;28;20183;-82
2023/03/26 03:28:43;;;;;;;4.03;1.67;;;6.50;99.90;;;;;;5016179;28;20178;-83
2023/03/26 03:31:09;;;;;;;5.47;1.97;;;6.50;99.90;;;;;;5033601;28;20182;-84
2023/03/26 03:33:35;;;;;;;6.27;1.90;;;6.50;99.90;;;;;;5034230;28;20174;-83
2023/03/26 03:36:05;;;;;;;5.00;1.80;;;6.40;99.90;;;;;;5016374;28;20212;-82
2023/03/26 03:38:31;;;;;;;4.57;1.80;;;6.40;99.90;;;;;;5016567;28;20177;-83
2023/03/26 03:40:57;;;;;;;4.27;2.33;;;6.40;99.90;;;;;;5015695;28;20197;-82
2023/03/26 03:43:22;;;;;;;5.63;2.00;;;6.40;99.90;;;;;;5034166;28;20668;-83
2023/03/26 03:45:48;;;;;;;7.67;2.30;;;6.40;99.90;;;;;;5016140;28;20272;-85
2023/03/26 03:48:13;;;;;;;5.53;2.03;;;6.40;99.90;;;;;;5016133;28;20209;-83
2023/03/26 03:50:39;;;;;;;8.63;1.90;;;6.40;99.90;;;;;;5033529;28;20213;-83
2023/03/26 03:53:05;;;;;;;5.87;1.83;;;6.40;99.90;;;;;;5032848;28;20184;-83
2023/03/26 03:55:30;;;;;;;8.23;2.17;;;6.30;99.90;;;;;;5033913;28;20724;-83
2023/03/26 03:57:57;;;;;;;6.93;2.00;;;6.40;99.90;;;;;;5032836;28;20173;-82
2023/03/26 04:00:23;;;;;;;6.03;1.50;;;6.30;99.90;;;;;;5015133;28;20197;-85
2023/03/26 04:02:49;;;;;;;5.93;2.03;;;6.30;99.90;;;;;;5033358;28;20181;-83
2023/03/26 04:05:14;;;;;;;5.37;1.60;;;6.20;99.90;;;;;;5032284;28;20253;-82
2023/03/26 04:07:40;;;;;;;5.20;2.13;;;6.20;99.90;;;;;;5033443;28;20204;-83
2023/03/26 04:10:08;;;;;;;4.97;2.00;;;6.20;99.90;;;;;;5015247;28;20197;-82
2023/03/26 04:12:33;;;;;;;6.77;1.80;;;6.20;99.90;;;;;;5033643;28;20192;-83
2023/03/26 04:14:59;;;;;;;7.17;2.10;;;6.10;99.90;;;;;;5015728;28;20208;-82
2023/03/26 04:17:25;;;;;;;9.17;2.20;;;6.10;99.90;;;;;;5015888;28;20172;-83
2023/03/26 04:19:53;;;;;;;6.10;1.93;;;6.10;99.90;;;;;;5015347;28;20572;-83
2023/03/26 04:22:20;;;;;;;4.67;2.07;;;6.10;99.90;;;;;;5033561;28;20193;-83
2023/03/26 04:24:47;;;;;;;6.17;2.37;;;6.10;99.90;;;;;;5015263;28;20185;-84
2023/03/26 04:27:17;;;;;;;6.03;2.50;;;6.00;99.90;;;;;;5015704;28;20181;-83
2023/03/26 04:29:46;;;;;;;6.17;2.10;;;6.00;99.90;;;;;;5033076;28;20202;-83
2023/03/26 04:32:23;;;;;;;6.07;2.07;;;6.00;99.90;;;;;;5015473;28;20176;-82
2023/03/26 04:34:49;;;;;;;6.90;2.27;;;5.90;99.90;;;;;;5015733;28;20212;-83
2023/03/26 04:37:26;;;;;;;6.00;1.70;;;5.90;99.90;;;;;;5032791;28;20578;-83
2023/03/26 04:39:53;;;;;;;5.47;1.80;;;5.80;99.90;;;;;;5032750;28;20197;-86
2023/03/26 04:42:20;;;;;;;5.30;2.00;;;5.70;99.90;;;;;;5033289;28;20168;-83
2023/03/26 04:44:49;;;;;;;7.27;2.03;;;5.60;99.90;;;;;;5033138;28;20177;-83
2023/03/26 04:47:16;;;;;;;4.93;1.80;;;5.60;99.90;;;;;;5033412;28;20173;-82
2023/03/26 04:49:42;;;;;;;4.87;1.97;;;5.50;99.90;;;;;;5014636;28;20266;-83
2023/03/26 04:52:10;;;;;;;7.80;2.00;;;5.40;99.90;;;;;;5032928;28;20223;-82
2023/03/26 04:54:37;;;;;;;8.50;2.40;;;5.50;99.90;;;;;;5015671;28;20199;-86
2023/03/26 04:57:11;;;;;;;4.93;1.80;;;5.50;99.90;;;;;;5014417;28;20175;-90
2023/03/26 04:59:40;;;;;;;7.03;1.90;;;5.50;99.90;;;;;;5013662;28;20192;-89
2023/03/26 05:02:07;;;;;;;4.60;1.90;;;5.60;99.90;;;;;;5031848;28;20169;-90
2023/03/26 05:04:35;;;;;;;5.73;1.90;;;5.60;99.90;;;;;;5014190;28;20257;-91
2023/03/26 05:07:01;;;;;;;9.00;2.27;;;5.70;99.90;;;;;;5032270;28;20188;-90
2023/03/26 05:09:27;;;;;;;6.17;2.37;;;5.70;99.90;;;;;;5014586;28;20199;-91
2023/03/26 05:11:53;;;;;;;7.50;2.23;;;5.70;99.90;;;;;;5031920;28;20261;-90
2023/03/26 05:14:19;;;;;;;5.53;2.30;;;5.70;99.90;;;;;;5014156;28;20171;-90
2023/03/26 05:16:47;;;;;;;5.40;2.20;;;5.70;99.90;;;;;;5031805;28;20208;-89
2023/03/26 05:19:13;;;;;;;7.03;2.20;;;5.70;99.90;;;;;;5032105;28;20402;-90
2023/03/26 05:21:39;;;;;;;9.47;2.53;;;5.60;99.90;;;;;;5014618;28;20190;-87
2023/03/26 05:24:05;;;;;;;7.03;2.00;;;5.60;99.90;;;;;;5014461;28;20171;-89
2023/03/26 05:26:32;;;;;;;12.27;2.40;;;5.70;99.90;;;;;;5031910;28;20171;-89
2023/03/26 05:28:58;;;;;;;7.43;2.20;;;5.70;99.90;;;;;;5014858;28;20176;-90
2023/03/26 05:31:25;;;;;;;12.47;2.73;;;5.70;99.90;;;;;;5031258;28;20656;-91
2023/03/26 05:33:51;;;;;;;5.87;2.27;;;5.80;99.90;;;;;;5014436;28;20651;-91
2023/03/26 05:36:17;;;;;;;11.80;5.03;;;5.90;99.90;;;;;;5014809;28;20224;-82
2023/03/26 05:38:46;;;;;;;7.27;3.67;;;5.90;99.90;;;;;;5032634;28;20165;-88
2023/03/26 05:41:12;;;;;;;5.07;2.30;;;6.20;99.90;;;;;;5031449;28;20187;-87
2023/03/26 05:43:38;;;;;;;5.73;2.40;;;6.50;99.90;;;;;;5014193;28;20259;-87
2023/03/26 05:46:04;;;;;;;8.07;2.13;;;6.50;99.90;;;;;;5031687;28;20240;-87
2023/03/26 05:48:30;;;;;;;5.47;2.33;;;6.50;99.90;;;;;;5031535;28;20232;-89
2023/03/26 05:50:56;;;;;;;5.23;2.30;;;6.50;99.90;;;;;;5017098;28;20275;-89
2023/03/26 05:53:24;;;;;;;5.83;2.60;;;6.50;99.90;;;;;;5017488;28;20219;-89
2023/03/26 05:55:56;;;;;;;6.83;2.50;;;6.50;99.90;;;;;;5017360;28;20257;-90
2023/03/26 05:58:29;;;;;;;8.00;2.43;;;6.50;99.90;;;;;;5035115;28;20172;-90
2023/03/26 06:00:57;;;;;;;5.70;2.30;;;6.50;99.90;;;;;;5016995;28;20220;-90
2023/03/26 06:03:23;;;;;;;5.53;2.30;;;6.50;99.90;;;;;;5036226;28;20229;-90
2023/03/26 06:05:49;;;;;;;5.63;2.27;;;6.50;99.90;;;;;;5020426;28;20178;-86
2023/03/26 06:08:14;;;;;;;6.93;2.80;;;6.50;99.90;;;;;;5017564;28;20223;-87
2023/03/26 06:10:40;;;;;;;5.63;2.30;;;6.50;99.90;;;;;;5034409;28;20227;-87
2023/03/26 06:13:06;;;;;;;5.30;2.40;;;6.50;99.90;;;;;;5034854;28;20197;-85
2023/03/26 06:15:31;;;;;;;5.87;2.30;;;6.50;99.90;;;;;;5035313;28;20208;-86
2023/03/26 06:17:57;;;;;;;8.43;2.63;;;6.50;99.90;;;;;;5035074;28;20773;-86
2023/03/26 06:20:23;;;;;;;5.07;2.57;;;6.50;99.90;;;;;;5034118;28;20280;-88
2023/03/26 06:22:48;;;;;;;7.83;2.80;;;6.50;99.90;;;;;;5034675;28;20180;-86
2023/03/26 06:25:14;;;;;;;5.83;2.40;;;6.60;99.90;;;;;;5017134;28;20181;-88
2023/03/26 06:27:40;;;;;;;6.50;2.50;;;6.60;99.90;;;;;;5017027;28;20312;-86
2023/03/26 06:30:06;;;;;;;6.63;2.37;;;6.60;99.90;;;;;;5016527;28;20569;-86
2023/03/26 06:32:31;;;;;;;7.17;2.63;;;6.60;99.90;;;;;;5034494;28;20652;-86
2023/03/26 06:34:57;;;;;;;8.63;2.33;;;6.60;99.90;;;;;;5034542;28;20198;-87
2023/03/26 06:37:23;;;;;;;6.93;2.10;;;6.60;99.90;;;;;;5016906;28;20184;-86
2023/03/26 06:39:48;;;;;;;7.40;2.30;;;6.60;99.90;;;;;;5034861;28;20198;-85
2023/03/26 06:42:14;;;;;;;6.83;2.13;;;6.70;99.90;;;;;;5018064;28;20248;-82
2023/03/26 06:44:39;;;;;;;7.13;2.10;;;6.70;99.90;;;;;;5035698;28;20196;-85
2023/03/26 06:47:05;;;;;;;6.77;1.80;;;6.80;99.90;;;;;;5017396;28;20229;-85
2023/03/26 06:49:30;;;;;;;5.37;2.30;;;6.80;99.90;;;;;;5034759;28;20217;-85
2023/03/26 06:51:56;;;;;;;7.87;2.10;;;6.80;99.90;;;;;;5016657;28;20228;-86
2023/03/26 06:54:22;;;;;;;7.73;2.10;;;6.90;99.90;;;;;;5033953;28;20182;-85
2023/03/26 06:56:47;;;;;;;5.63;2.50;;;6.90;99.90;;;;;;5016518;28;20202;-85
2023/03/26 06:59:13;;;;;;;4.97;1.90;;;6.90;99.90;;;;;;5032834;28;20212;-88
2023/03/26 07:01:39;;;;;;;6.57;2.10;;;7.00;99.90;;;;;;5033178;28;20296;-87
2023/03/26 07:04:04;;;;;;;9.23;2.33;;;7.00;99.90;;;;;;5034397;28;20178;-89
2023/03/26 07:06:31;;;;;;;5.57;1.60;;;7.10;99.90;;;;;;5033942;28;20175;-89
2023/03/26 07:08:56;;;;;;;5.97;2.20;;;7.10;99.90;;;;;;5016164;28;20178;-87
2023/03/26 07:11:24;;;;;;;5.27;1.90;;;7.20;99.90;;;;;;5016065;28;20193;-86
2023/03/26 07:13:50;;;;;;;6.50;2.13;;;7.30;99.90;;;;;;5016405;28;20205;-86
2023/03/26 07:16:16;;;;;;;8.40;1.93;;;7.30;99.90;;;;;;5016432;28;20202;-86
2023/03/26 07:18:44;;;;;;;5.77;1.70;;;7.40;99.90;;;;;;5024848;28;20185;-87
2023/03/26 07:21:10;;;;;;;7.80;2.10;;;7.40;99.90;;;;;;5035550;28;20627;-86
2023/03/26 07:23:36;;;;;;;4.23;1.60;;;7.40;99.90;;;;;;5018033;28;20201;-86
2023/03/26 07:26:20;;;;;;;5.57;1.80;;;7.40;99.90;;;;;;5016143;28;20551;-84
2023/03/26 07:28:54;;;;;;;8.50;2.03;;;7.40;99.90;;;;;;4997398;28;20535;-86
2023/03/26 07:31:26;;;;;;;6.47;1.90;;;7.40;99.90;;;;;;4996192;28;20650;-88
2023/03/26 07:33:52;;;;;;;5.67;1.87;;;7.40;99.90;;;;;;4996364;28;20225;-86
2023/03/26 07:36:37;;;;;;;10.70;2.53;;;7.40;99.90;;;;;;4996655;28;20198;-87
2023/03/26 07:39:13;;;;;;;7.27;2.20;;;7.50;99.90;;;;;;4996789;28;20195;-86
2023/03/26 07:41:54;;;;;;;5.07;1.70;;;7.40;99.90;;;;;;4996015;28;20273;-87
2023/03/26 07:44:29;;;;;;;7.77;1.83;;;7.50;99.90;;;;;;5028659;28;20213;-87
2023/03/26 07:46:55;;;;;;;9.27;2.00;;;7.40;99.90;;;;;;5034311;28;20261;-86
2023/03/26 07:49:21;;;;;;;5.33;2.20;;;7.50;99.90;;;;;;5033222;28;20621;-86
2023/03/26 07:51:47;;;;;;;6.77;2.23;;;7.50;99.90;;;;;;5033287;28;20185;-87
2023/03/26 07:54:13;;;;;;;7.03;1.87;;;7.50;99.90;;;;;;5012819;28;20630;-86
2023/03/26 07:56:51;;;;;;;5.70;2.00;;;7.50;99.90;;;;;;5015918;28;20297;-87
2023/03/26 07:59:22;;;;;;;7.27;1.80;;;7.60;99.90;;;;;;5032218;28;20224;-87
2023/03/26 08:02:42;;;;;;;5.87;1.80;;;7.50;99.90;;;;;;5015654;28;20248;-87
2023/03/26 08:05:27;;;;;;;4.83;2.07;;;7.60;99.90;;;;;;4933966;29;20181;-87
2023/03/26 08:08:18;;;;;;;4.93;1.60;;;7.70;99.90;;;;;;5034249;28;20193;-85
2023/03/26 08:10:59;;;;;;;9.00;2.30;;;7.70;99.90;;;;;;5018029;28;20198;-87
2023/03/26 08:13:36;;;;;;;8.60;1.97;;;7.70;99.90;;;;;;5034097;28;20229;-86
2023/03/26 08:16:04;;;;;;;6.10;1.93;;;7.70;99.90;;;;;;5036328;28;20624;-85
2023/03/26 08:18:34;;;;;;;8.73;2.00;;;7.80;99.90;;;;;;5037030;28;20177;-86
2023/03/26 08:21:22;;;;;;;5.73;2.00;;;7.80;99.90;;;;;;5035870;28;20577;-85
2023/03/26 08:24:16;;;;;;;5.93;2.27;;;7.90;99.90;;;;;;5018311;28;20229;-86
2023/03/26 08:27:23;;;;;;;9.83;2.00;;;7.90;99.90;;;;;;5033809;28;20249;-86
2023/03/26 08:30:01;;;;;;;7.10;2.10;;;8.00;99.90;;;;;;5014577;28;20291;-87
2023/03/26 08:32:27;;;;;;;8.97;2.23;;;8.00;99.90;;;;;;5033048;28;20182;-88
2023/03/26 08:34:52;;;;;;;6.43;2.47;;;8.00;99.90;;;;;;5015620;28;20203;-87
2023/03/26 08:37:18;;;;;;;50.37;17.90;;;8.10;99.90;;;;;;5031740;28;20178;-88
2023/03/26 08:39:43;;;;;;;11.63;4.37;;;8.10;99.90;;;;;;5014456;28;20288;-87
2023/03/26 08:42:18;;;;;;;10.67;2.80;;;8.10;99.90;;;;;;5015468;28;20175;-86
2023/03/26 08:44:49;;;;;;;6.37;2.50;;;8.10;99.90;;;;;;5034700;28;20175;-87
2023/03/26 08:47:45;;;;;;;8.50;2.50;;;8.10;99.90;;;;;;5015942;28;20193;-87
2023/03/26 08:50:28;;;;;;;5.50;2.10;;;8.20;99.90;;;;;;5064194;22;20232;-83
2023/03/26 08:53:15;;;;;;;12.20;2.83;;;8.20;99.90;;;;;;5051623;28;20233;-82
2023/03/26 08:56:02;;;;;;;7.77;2.47;;;8.20;99.90;;;;;;5051383;28;20191;-83
2023/03/26 08:58:45;;;;;;;8.07;2.50;;;8.10;99.90;;;;;;5053557;28;20204;-82
2023/03/26 09:01:19;;;;;;;8.43;3.13;;;8.10;99.90;;;;;;5051303;28;20190;-83
2023/03/26 09:04:03;;;;;;;11.43;3.00;;;8.10;99.90;;;;;;5051774;28;20225;-83
2023/03/26 09:06:49;;;;;;;7.90;2.93;;;8.10;99.90;;;;;;5053156;28;20180;-83
2023/03/26 09:09:57;;;;;;;6.77;2.53;;;8.10;99.90;;;;;;5051492;28;20174;-85
2023/03/26 09:12:41;;;;;;;8.83;3.10;;;8.10;99.90;;;;;;5052588;28;20663;-82
2023/03/26 09:15:27;;;;;;;7.87;2.40;;;8.10;99.90;;;;;;5053070;28;20285;-83
2023/03/26 09:18:13;;;;;;;6.93;3.60;;;8.10;99.90;;;;;;5051282;28;20169;-83
2023/03/26 09:20:47;;;;;;;5.67;2.60;;;8.10;99.90;;;;;;5045055;28;20189;-82
2023/03/26 09:23:56;;;;;;;5.83;2.23;;;8.10;99.90;;;;;;5052397;28;20185;-82
2023/03/26 09:26:49;;;;;;;8.03;2.43;;;8.10;99.90;;;;;;5023047;28;20202;-82
2023/03/26 09:29:53;;;;;;;11.90;2.40;;;8.00;99.90;;;;;;5035883;28;20554;-82
2023/03/26 09:32:41;;;;;;;9.80;2.90;;;8.00;99.90;;;;;;5035663;28;20208;-82
2023/03/26 09:35:10;;;;;;;6.97;2.53;;;8.00;99.90;;;;;;5037808;28;20197;-82
2023/03/26 09:37:47;;;;;;;5.80;2.63;;;8.00;99.90;;;;;;5035730;28;20171;-82
2023/03/26 09:40:28;;;;;;;7.00;2.33;;;8.00;99.90;;;;;;5035816;28;20195;-82
2023/03/26 09:43:14;;;;;;;5.00;2.60;;;8.00;99.90;;;;;;5036083;28;20177;-82
2023/03/26 09:45:58;;;;;;;7.63;2.67;;;7.90;99.90;;;;;;5036386;28;20174;-83
2023/03/26 09:48:48;;;;;;;8.77;2.33;;;7.90;99.90;;;;;;5036185;28;20261;-82
2023/03/26 09:51:46;;;;;;;8.23;2.27;;;7.90;99.90;;;;;;5036386;28;20273;-80
2023/03/26 09:54:47;;;;;;;6.80;2.47;;;8.00;99.90;;;;;;5052572;28;20670;-80
2023/03/26 09:57:44;;;;;;;7.73;2.37;;;8.00;99.90;;;;;;5055674;28;20200;-82
2023/03/26 10:00:29;;;;;;;8.87;2.53;;;8.00;99.90;;;;;;5055966;28;20193;-82
2023/03/26 10:03:26;;;;;;;6.80;3.40;;;7.90;99.90;;;;;;5055676;28;20223;-83
2023/03/26 10:06:05;;;;;;;7.63;2.67;;;7.90;99.90;;;;;;5056605;28;20166;-81
2023/03/26 10:08:49;;;;;;;6.37;2.27;;;7.90;99.90;;;;;;5057413;28;20640;-81
2023/03/26 10:11:37;;;;;;;7.07;2.60;;;7.80;99.90;;;;;;5055893;28;20197;-81
2023/03/26 10:14:14;;;;;;;9.63;2.57;;;7.80;99.90;;;;;;5056577;28;20170;-81
2023/03/26 10:16:49;;;;;;;5.43;2.30;;;7.80;99.90;;;;;;5057757;28;20201;-81
2023/03/26 10:19:38;;;;;;;5.83;2.10;;;7.70;99.90;;;;;;5056506;28;20165;-82
2023/03/26 10:22:24;;;;;;;5.27;2.23;;;7.70;99.90;;;;;;5046136;28;20181;-81
2023/03/26 10:25:33;;;;;;;3.50;1.70;;;7.60;99.90;;;;;;5056655;28;20653;-82
2023/03/26 10:28:41;;;;;;;2.93;1.43;;;7.50;99.90;;;;;;5056908;28;20250;-81
2023/03/26 10:31:29;;;;;;;4.87;1.70;;;7.40;99.90;;;;;;5054752;28;20230;-81
2023/03/26 10:34:13;;;;;;;3.07;1.63;;;7.30;99.90;;;;;;5055284;28;20205;-82
2023/03/26 10:37:00;;;;;;;2.50;1.40;;;7.20;99.90;;;;;;5054745;28;20297;-84
2023/03/26 10:40:13;;;;;;;2.23;1.43;;;7.20;99.90;;;;;;5056525;28;20537;-81
2023/03/26 10:43:07;;;;;;;2.53;1.30;;;7.20;99.90;;;;;;5032752;28;20195;-81
2023/03/26 10:45:39;;;;;;;3.40;1.30;;;7.10;99.90;;;;;;5055822;28;20194;-81
2023/03/26 10:48:26;;;;;;;2.03;0.97;;;7.10;99.90;;;;;;5057460;28;20195;-81
2023/03/26 10:51:28;;;;;;;1.50;0.87;;;7.00;99.90;;;;;;5056678;28;20582;-81
2023/03/26 10:54:01;;;;;;;2.03;0.90;;;6.90;99.90;;;;;;5056318;28;20266;-81
2023/03/26 10:56:27;;;;;;;1.60;0.90;;;6.80;99.90;;;;;;5056442;28;20208;-81
2023/03/26 10:58:55;;;;;;;3.40;1.10;;;6.80;99.90;;;;;;5056659;28;20180;-81
2023/03/26 11:01:50;;;;;;;2.13;1.17;;;6.80;99.90;;;;;;5055416;28;20192;-85
2023/03/26 11:04:43;;;;;;;1.83;1.10;;;6.80;99.90;;;;;;5056093;28;20183;-81
2023/03/26 11:07:42;;;;;;;2.20;1.20;;;6.80;99.90;;;;;;5053800;28;20192;-83
2023/03/26 11:10:24;;;;;;;1.60;1.20;;;6.80;99.90;;;;;;5054730;28;20209;-82
2023/03/26 11:13:19;;;;;;;4.27;1.77;;;6.90;99.90;;;;;;5055394;28;20191;-82
2023/03/26 11:16:10;;;;;;;2.17;0.83;;;6.90;99.90;;;;;;5055524;28;20221;-82
2023/03/26 11:18:46;;;;;;;2.43;1.07;;;6.90;99.90;;;;;;5036934;28;20191;-84
2023/03/26 11:21:31;;;;;;;3.23;1.30;;;6.90;99.90;;;;;;5047431;28;20193;-82
2023/03/26 11:24:11;;;;;;;1.40;1.07;;;6.90;99.90;;;;;;5050869;28;20267;-82
2023/03/26 11:27:06;;;;;;;3.23;1.20;;;6.90;99.90;;;;;;5051220;28;20176;-82
2023/03/26 11:30:01;;;;;;;1.97;1.10;;;6.90;99.90;;;;;;5050002;28;20186;-81
2023/03/26 11:32:47;;;;;;;1.57;0.90;;;7.00;99.90;;;;;;5054041;28;20177;-82
2023/03/26 11:35:41;;;;;;;3.17;1.17;;;6.90;99.90;;;;;;5053860;28;20205;-82
2023/03/26 11:38:20;;;;;;;2.50;1.10;;;6.90;99.90;;;;;;5054163;28;20271;-82
2023/03/26 11:40:50;;;;;;;1.70;1.00;;;6.80;99.90;;;;;;5053984;28;20191;-82
2023/03/26 11:43:19;;;;;;;2.03;1.20;;;6.90;99.90;;;;;;5053363;28;20177;-83
2023/03/26 11:45:47;;;;;;;2.13;1.03;;;7.00;99.90;;;;;;5054508;28;20263;-82
2023/03/26 11:48:30;;;;;;;2.20;1.10;;;7.00;99.90;;;;;;5053173;28;20222;-81
2023/03/26 11:51:01;;;;;;;2.83;1.20;;;7.00;99.90;;;;;;5054494;28;20216;-82
2023/03/26 11:53:33;;;;;;;2.33;1.17;;;7.00;99.90;;;;;;5055108;28;20337;-82
2023/03/26 11:56:02;;;;;;;1.50;1.10;;;7.00;99.90;;;;;;5045003;28;20216;-82
2023/03/26 11:58:44;;;;;;;4.30;1.63;;;7.10;99.90;;;;;;5041953;28;20272;-82
2023/03/26 12:01:21;;;;;;;4.20;1.80;;;7.10;99.90;;;;;;5039574;28;20216;-81
2023/03/26 12:04:05;;;;;;;3.30;1.40;;;7.30;99.90;;;;;;5054825;28;20251;-82
2023/03/26 12:06:31;;;;;;;5.03;2.90;;;7.40;99.90;;;;;;5051026;28;20173;-82
2023/03/26 12:08:57;;;;;;;4.27;1.80;;;7.40;99.90;;;;;;5054863;28;20194;-81
2023/03/26 12:11:27;;;;;;;8.47;3.27;;;7.50;99.90;;;;;;5054397;28;20244;-82
2023/03/26 12:14:00;;;;;;;6.70;3.23;;;7.60;99.90;;;;;;5054125;28;20202;-83
2023/03/26 12:16:26;;;;;;;3.13;1.50;;;7.70;99.90;;;;;;5053414;28;20196;-82
2023/03/26 12:19:07;;;;;;;10.17;3.93;;;7.60;99.90;;;;;;5053634;28;20184;-82
2023/03/26 12:21:47;;;;;;;12.07;4.20;;;7.70;99.90;;;;;;5054274;28;20191;-82
2023/03/26 12:24:33;;;;;;;8.50;3.77;;;7.70;99.90;;;;;;5053504;28;20182;-82
2023/03/26 12:27:20;;;;;;;6.37;2.83;;;7.70;99.90;;;;;;5054732;28;20187;-83
2023/03/26 12:30:02;;;;;;;15.87;6.20;;;7.70;99.90;;;;;;5052533;28;20189;-82
2023/03/26 12:32:32;;;;;;;12.77;4.40;;;7.80;99.90;;;;;;5053114;28;20247;-82
2023/03/26 12:35:05;;;;;;;2.37;1.50;;;7.90;99.90;;;;;;5051521;28;20202;-83
2023/03/26 12:37:42;;;;;;;12.63;4.60;;;8.10;99.90;;;;;;5054047;28;20198;-82
2023/03/26 12:40:26;;;;;;;18.17;6.50;;;8.30;99.90;;;;;;5053166;28;20185;-81
2023/03/26 12:42:57;;;;;;;10.23;5.00;;;8.30;99.90;;;;;;5052876;28;20264;-80
2023/03/26 12:45:36;;;;;;;7.83;4.50;;;8.40;99.90;;;;;;5053260;28;20181;-82
2023/03/26 12:48:02;;;;;;;3.07;1.93;;;8.20;99.90;;;;;;5054297;28;20177;-84
2023/03/26 12:50:50;;;;;;;2.27;1.50;;;8.20;99.90;;;;;;5053392;28;20584;-83
2023/03/26 12:53:27;;;;;;;2.70;1.40;;;8.10;99.90;;;;;;5052037;28;20192;-82
2023/03/26 12:56:00;;;;;;;1.97;1.47;;;8.10;99.90;;;;;;5052940;28;20200;-82
2023/03/26 12:58:44;;;;;;;1.77;1.17;;;8.20;99.90;;;;;;5053957;28;20174;-82
2023/03/26 13:01:34;;;;;;;1.47;1.10;;;8.20;99.90;;;;;;5053890;28;20193;-81
2023/03/26 13:04:36;;;;;;;2.93;1.20;;;8.30;99.90;;;;;;5052825;28;20174;-82
2023/03/26 13:07:32;;;;;;;1.87;1.40;;;8.30;99.90;;;;;;5054464;28;20169;-82
2023/03/26 13:10:09;;;;;;;2.23;1.13;;;8.30;99.90;;;;;;5047944;28;20581;-82
2023/03/26 13:12:44;;;;;;;2.23;1.30;;;8.40;99.90;;;;;;5045537;28;20170;-84
2023/03/26 13:15:19;;;;;;;2.87;1.30;;;8.40;99.90;;;;;;5053935;28;20200;-82
2023/03/26 13:18:06;;;;;;;3.07;1.67;;;8.40;99.90;;;;;;5053907;28;20163;-82
2023/03/26 13:20:56;;;;;;;2.20;1.33;;;8.50;99.90;;;;;;5052278;28;20225;-82
2023/03/26 13:23:37;;;;;;;4.17;1.63;;;8.50;99.90;;;;;;5052721;28;20253;-82
2023/03/26 13:26:26;;;;;;;3.07;1.37;;;8.50;99.90;;;;;;5052946;28;20182;-82
2023/03/26 13:29:19;;;;;;;3.13;1.20;;;8.50;99.90;;;;;;5047757;28;20672;-81
2023/03/26 13:32:03;;;;;;;1.80;1.53;;;8.50;99.90;;;;;;5033427;28;20267;-82